Accueil
METAR-TAF:

METAR-TAF

Aéroports :

Fritzlar, Allemagne

latitude: 51-07N, longitude: 009-17E, altitude: 172 m

Observation

Le bulletin a été fait il y a 26 minutes, à 03:20 UTC
Vent 9 kt de sud-ouest
Température 4°C
Humidité 81%
Pression 984 hPa
Visibilité 10 km ou plus
Nuages fragmentés à une hauteur de 2000 ft

METAR: ETHF 110320Z 23009KT 9999 BKN020 04/01 Q0984 WHT

Heure: 04:46 (03:46 UTC)


TAF: absent

Observations et prévisions météorologiques de plus de 4000 aéroports (messages METAR et TAF).

Les stations disponibles sont représentées par des disques jaunes et rouges sur la carte.

Passer la souris dessus pour voir le nom de la station.

Cliquer dessus pour voir les observations et prévisions météorologiques.

Pour changer de carte: cliquez sur les boutons verts avec une croix noire pour zoomer, sur le bouton vert avec un tiret pour effectuer un zoom arrière, ou sur les flèches vertes pour les cartes adjacentes.


METAR-TAF: